Portage, Minnesota
Current Conditions -  °F | °C
As of 6:13 AM on Saturday 25 Oct 2014 (Local Time) from KORB Reporting Station
Clear Clear  
Wind Chill: 39°   Ceiling: Unl
Heat Index: 45°   Visibility: 10mi
Dew Point: 30°   Wind: 10mph
Humidity: 57%   Direction: 280°W
Pressure: 29.83"   Gusts: 21mph
Location:  48.1455°N, 92.8504°W
Report Text: KORB 251113Z AUTO 28009G18KT 10SM CLR 07/M01 A2983 RMK AO2
Loading
Personal Weather Stations






























Interactive Weather Map
Tropical Storm Tracking
New forecast layout! Learn more

10-Day Weather Forecast

Advertisements
Track Severe Weather on mobile